ニアメ の空港の天気 - METARとTAF

ニアメ/ディオリ・アマニ国際空港 ( DRRN / NIM ) - ニジェール ニアメ
飛行場実況気象(Metar)
観測時間05/20 02:00 WAT (05/20 01:00 UTC)
風向・風速南南西 4m/s
視程10km以上
天気現象
なし
気温32℃
湿度46%
気圧1008hPa
METARDRRN 200100Z 21008KT CAVOK 32/19 Q1008 NOSIG
過去の天気等 Google飛行場航空写真 Wunderground天気予報

過去48時間のMETAR

飛行場予報(TAF)
発表時間: 5/20 00:00 WAT (5/19 23:00 UTC)
予報対象時間: 20日1時 WAT ~ 21日7時 WAT
風向・風速南西 3m/s
視程10km以上
なし
20日16時 WAT ~ 20日23時 WAT に 確率 40% で一時的に
風向・風速不定 18m/s
視程600m
天気現象高い風塵 雷雨
全天の4割程度の雲 雲底高度 910m
少しの積乱雲 雲底高度 1010m
TAF DRRN 192300Z 2000/2106 22005KT CAVOK
PROB40 TEMPO 2015/2022 VRB35KT 0600 BLDU TSRA SCT030 FEW033CB